TimeCST,TemperatureF,Dew PointF,Humidity,Sea Level PressureIn,VisibilityMPH,Wind Direction,Wind SpeedMPH,Gust SpeedMPH,PrecipitationIn,Events,Conditions,WindDirDegrees,DateUTC
12:51 AM,71.1,66.0,84,29.93,10.0,South,9.2,-,N/A,,Overcast,180,2013-01-01 06:51:00
1:51 AM,70.0,66.0,87,29.92,9.0,SSE,8.1,-,0.01,Rain,Light Rain,150,2013-01-01 07:51:00
2:51 AM,70.0,66.9,90,29.90,10.0,SSE,15.0,-,0.02,Rain,Light Rain,160,2013-01-01 08:51:00
3:51 AM,71.1,66.0,84,29.88,10.0,South,15.0,-,0.00,Rain,Light Rain,170,2013-01-01 09:51:00
4:51 AM,71.1,66.0,84,29.90,10.0,West,13.8,-,0.00,Rain,Light Rain,260,2013-01-01 10:51:00
5:27 AM,69.8,66.2,88,29.90,10.0,West,11.5,-,0.01,Rain,Light Rain,280,2013-01-01 11:27:00
5:51 AM,70.0,66.0,87,29.91,10.0,WNW,9.2,-,0.01,Rain,Light Rain,300,2013-01-01 11:51:00
6:37 AM,69.8,66.2,88,29.93,10.0,NW,10.4,-,0.00,Rain,Light Rain,310,2013-01-01 12:37:00
6:51 AM,69.1,66.0,90,29.93,10.0,NW,12.7,-,0.00,Rain,Light Rain,320,2013-01-01 12:51:00
7:02 AM,69.8,64.4,83,29.93,10.0,NW,10.4,-,0.00,Rain,Light Rain,320,2013-01-01 13:02:00
7:51 AM,68.0,64.9,90,29.95,8.0,NNW,9.2,-,0.01,Rain,Light Rain,330,2013-01-01 13:51:00
8:46 AM,66.2,62.6,88,30.01,6.0,North,23.0,26.5,0.00,Rain,Light Rain,360,2013-01-01 14:46:00
8:51 AM,64.9,62.1,90,30.00,6.0,North,19.6,-,0.00,Rain,Light Rain,360,2013-01-01 14:51:00
9:51 AM,60.1,55.9,86,30.05,7.0,North,27.6,33.4,0.01,Rain,Light Rain,10,2013-01-01 15:51:00
10:40 AM,60.8,53.6,77,30.07,10.0,North,23.0,31.1,0.00,,Overcast,10,2013-01-01 16:40:00
10:51 AM,60.1,54.0,80,30.07,10.0,North,20.7,-,0.00,,Overcast,10,2013-01-01 16:51:00
11:51 AM,60.1,53.1,78,30.08,10.0,North,20.7,-,N/A,,Overcast,10,2013-01-01 17:51:00
12:00 PM,59.0,53.6,82,30.08,10.0,North,18.4,-,N/A,,Overcast,10,2013-01-01 18:00:00
12:51 PM,59.0,52.0,78,30.08,10.0,North,17.3,23.0,N/A,,Overcast,10,2013-01-01 18:51:00
1:51 PM,61.0,53.1,75,30.06,10.0,North,17.3,-,N/A,,Overcast,360,2013-01-01 19:51:00
2:51 PM,60.1,51.1,72,30.08,10.0,North,18.4,-,N/A,,Overcast,10,2013-01-01 20:51:00
3:51 PM,59.0,48.0,67,30.08,10.0,North,20.7,25.3,N/A,,Overcast,10,2013-01-01 21:51:00
4:51 PM,59.0,48.0,67,30.11,10.0,North,13.8,-,N/A,,Scattered Clouds,10,2013-01-01 22:51:00
5:51 PM,57.9,48.0,70,30.11,10.0,North,12.7,-,N/A,,Mostly Cloudy,10,2013-01-01 23:51:00
6:51 PM,57.9,48.0,70,30.14,10.0,North,12.7,-,N/A,,Mostly Cloudy,360,2013-01-02 00:51:00
7:51 PM,57.0,46.9,69,30.16,10.0,North,10.4,-,N/A,,Mostly Cloudy,10,2013-01-02 01:51:00
8:51 PM,55.9,46.0,69,30.18,10.0,North,12.7,-,N/A,,Scattered Clouds,360,2013-01-02 02:51:00
9:51 PM,54.0,45.0,72,30.17,10.0,North,17.3,-,N/A,,Partly Cloudy,10,2013-01-02 03:51:00
10:51 PM,52.0,43.0,71,30.18,10.0,North,17.3,-,N/A,,Scattered Clouds,350,2013-01-02 04:51:00
11:51 PM,51.1,42.1,71,30.18,10.0,North,13.8,-,N/A,,Scattered Clouds,10,2013-01-02 05:51:00